Time,TemperatureF,DewpointF,PressureIn,WindDirection,WindDirectionDegrees,WindSpeedMPH,WindSpeedGustMPH,Humidity,HourlyPrecipIn,Conditions,Clouds,dailyrainin,SoftwareType,DateUTC
2013-02-11 00:00:00,24.4,17.7,30.16,WSW,247,0.0,0.0,75,0.00,,FEW015,0.00,VWS V14.01,2013-02-11 08:00:00,
2013-02-11 00:05:00,24.6,18.1,30.16,WSW,247,0.0,0.0,76,0.00,,FEW015,0.00,VWS V14.01,2013-02-11 08:05:00,
2013-02-11 00:10:00,24.8,18.3,30.16,WSW,247,0.0,0.0,76,0.00,,FEW015,0.00,VWS V14.01,2013-02-11 08:10:00,
2013-02-11 00:15:00,25.2,18.7,30.16,WSW,247,0.0,0.0,76,0.00,,FEW015,0.00,VWS V14.01,2013-02-11 08:15:00,
2013-02-11 00:20:00,25.3,18.9,30.16,WSW,247,0.0,0.0,76,0.00,,FEW015,0.00,VWS V14.01,2013-02-11 08:20:00,
2013-02-11 00:25:00,25.7,19.5,30.16,WSW,247,0.0,0.0,77,0.00,,FEW015,0.00,VWS V14.01,2013-02-11 08:25:00,
2013-02-11 00:30:00,26.1,19.9,30.16,WSW,247,0.0,0.0,77,0.00,,FEW015,0.00,VWS V14.01,2013-02-11 08:30:00,
2013-02-11 00:35:00,26.2,20.0,30.16,WSW,247,0.0,0.0,77,0.00,,FEW015,0.00,VWS V14.01,2013-02-11 08:35:00,
2013-02-11 00:40:00,26.4,20.2,30.14,WSW,247,0.0,0.0,77,0.00,,BKN021,0.00,VWS V14.01,2013-02-11 08:40:00,
2013-02-11 00:45:00,26.8,20.5,30.14,WSW,247,0.0,0.0,77,0.00,,BKN021,0.00,VWS V14.01,2013-02-11 08:45:00,
2013-02-11 00:50:00,27.0,20.7,30.14,WSW,247,0.0,0.0,77,0.00,,BKN021,0.00,VWS V14.01,2013-02-11 08:50:00,
2013-02-11 00:55:00,27.3,21.1,30.14,WSW,247,0.0,0.0,77,0.00,,BKN021,0.00,VWS V14.01,2013-02-11 08:55:00,
2013-02-11 01:00:00,27.5,21.2,30.14,South,174,0.0,0.0,77,0.00,,BKN021,0.00,VWS V14.01,2013-02-11 09:00:00,
2013-02-11 01:05:00,27.7,21.4,30.14,South,176,0.0,0.0,77,0.00,,BKN021,0.00,VWS V14.01,2013-02-11 09:05:00,
2013-02-11 01:10:00,27.9,21.6,30.16,South,176,0.0,0.0,77,0.00,,BKN021,0.00,VWS V14.01,2013-02-11 09:10:00,
2013-02-11 01:15:00,28.0,21.5,30.16,South,170,0.0,0.0,76,0.00,,BKN021,0.00,VWS V14.01,2013-02-11 09:15:00,
2013-02-11 01:20:00,28.2,21.6,30.16,South,170,0.0,0.0,76,0.00,,BKN021,0.00,VWS V14.01,2013-02-11 09:20:00,
2013-02-11 01:25:00,28.4,21.8,30.16,South,170,0.0,0.0,76,0.00,,BKN021,0.00,VWS V14.01,2013-02-11 09:25:00,
2013-02-11 01:30:00,28.6,21.7,30.16,South,170,0.0,0.0,75,0.00,,BKN021,0.00,VWS V14.01,2013-02-11 09:30:00,
2013-02-11 01:35:00,28.6,21.7,30.16,South,170,0.0,0.0,75,0.00,,BKN021,0.00,VWS V14.01,2013-02-11 09:35:00,
2013-02-11 01:40:00,28.6,21.4,30.16,South,170,0.0,0.0,74,0.00,,BKN021,0.00,VWS V14.01,2013-02-11 09:40:00,
2013-02-11 01:45:00,28.6,21.4,30.16,South,170,0.0,0.0,74,0.00,,BKN021,0.00,VWS V14.01,2013-02-11 09:45:00,
2013-02-11 01:50:00,28.8,21.5,30.16,South,170,0.0,0.0,74,0.00,,BKN021,0.00,VWS V14.01,2013-02-11 09:50:00,
2013-02-11 01:55:00,28.9,21.4,30.16,South,170,0.0,0.0,73,0.00,,BKN021,0.00,VWS V14.01,2013-02-11 09:55:00,
2013-02-11 02:00:00,28.8,21.2,30.16,South,170,0.0,0.0,73,0.00,,BKN021,0.00,VWS V14.01,2013-02-11 10:00:00,
2013-02-11 02:05:00,28.9,21.4,30.16,South,170,0.0,0.0,73,0.00,,OVC019,0.00,VWS V14.01,2013-02-11 10:05:00,
2013-02-11 02:10:00,29.1,21.6,30.14,SSE,167,0.0,0.0,73,0.00,,OVC019,0.00,VWS V14.01,2013-02-11 10:10:00,
2013-02-11 02:15:00,28.9,21.1,30.14,SSE,167,0.0,0.0,72,0.00,,OVC019,0.00,VWS V14.01,2013-02-11 10:15:00,
2013-02-11 02:20:00,28.9,21.1,30.14,SSE,167,0.0,0.0,72,0.00,,OVC019,0.00,VWS V14.01,2013-02-11 10:20:00,
2013-02-11 02:25:00,29.1,21.2,30.16,SSE,167,0.0,0.0,72,0.00,,OVC019,0.00,VWS V14.01,2013-02-11 10:25:00,
2013-02-11 02:29:00,29.1,21.2,30.16,SSE,167,0.0,0.0,72,0.00,,OVC019,0.00,VWS V14.01,2013-02-11 10:29:00,
2013-02-11 02:34:00,29.3,21.4,30.16,SSE,167,0.0,0.0,72,0.00,,OVC019,0.00,VWS V14.01,2013-02-11 10:34:00,
2013-02-11 02:39:00,29.5,21.6,30.16,SSE,167,0.0,0.0,72,0.00,,OVC019,0.00,VWS V14.01,2013-02-11 10:39:00,
2013-02-11 02:44:00,29.5,21.2,30.16,SSE,167,0.0,0.0,71,0.00,,OVC019,0.00,VWS V14.01,2013-02-11 10:44:00,
2013-02-11 02:49:00,29.7,21.4,30.16,SSE,168,0.0,0.0,71,0.00,,OVC019,0.00,VWS V14.01,2013-02-11 10:49:00,
2013-02-11 02:54:00,29.7,21.4,30.16,SSE,168,0.0,0.0,71,0.00,,OVC019,0.00,VWS V14.01,2013-02-11 10:54:00,
2013-02-11 02:59:00,29.7,21.1,30.16,SW,236,0.0,0.0,70,0.00,,OVC019,0.00,VWS V14.01,2013-02-11 10:59:00,
2013-02-11 03:04:00,29.7,21.1,30.16,WSW,237,0.0,0.0,70,0.00,,OVC019,0.00,VWS V14.01,2013-02-11 11:04:00,
2013-02-11 03:09:00,29.8,21.3,30.14,WSW,237,0.0,0.0,70,0.00,,OVC019,0.00,VWS V14.01,2013-02-11 11:09:00,
2013-02-11 03:14:00,29.8,21.3,30.14,WSW,237,0.0,0.0,70,0.00,,OVC019,0.00,VWS V14.01,2013-02-11 11:14:00,
2013-02-11 03:19:00,29.8,20.9,30.14,WSW,237,0.0,0.0,69,0.00,,OVC019,0.00,VWS V14.01,2013-02-11 11:19:00,
2013-02-11 03:24:00,29.8,20.9,30.16,WSW,237,0.0,0.0,69,0.00,,OVC019,0.00,VWS V14.01,2013-02-11 11:24:00,
2013-02-11 03:29:00,29.8,20.9,30.16,WSW,237,0.0,0.0,69,0.00,,OVC019,0.00,VWS V14.01,2013-02-11 11:29:00,
2013-02-11 03:34:00,30.0,21.1,30.16,WSW,237,0.0,0.0,69,0.00,,OVC019,0.00,VWS V14.01,2013-02-11 11:34:00,
2013-02-11 03:39:00,29.8,20.6,30.16,WSW,237,0.0,0.0,68,0.00,,OVC019,0.00,VWS V14.01,2013-02-11 11:39:00,
2013-02-11 03:44:00,29.8,20.6,30.16,WSW,237,0.0,0.0,68,0.00,,OVC019,0.00,VWS V14.01,2013-02-11 11:44:00,
2013-02-11 03:49:00,29.7,20.1,30.16,WSW,237,0.0,0.0,67,0.00,,OVC019,0.00,VWS V14.01,2013-02-11 11:49:00,
2013-02-11 03:54:00,29.7,20.1,30.16,WSW,237,0.0,0.0,67,0.00,,OVC019,0.00,VWS V14.01,2013-02-11 11:54:00,
2013-02-11 03:59:00,29.5,19.9,30.16,WSW,237,0.0,0.0,67,0.00,,OVC019,0.00,VWS V14.01,2013-02-11 11:59:00,
2013-02-11 04:04:00,29.7,20.1,30.16,WSW,237,0.0,0.0,67,0.00,,OVC019,0.00,VWS V14.01,2013-02-11 12:04:00,
2013-02-11 04:09:00,29.7,19.7,30.16,WSW,237,0.0,0.0,66,0.00,,OVC019,0.00,VWS V14.01,2013-02-11 12:09:00,
2013-02-11 04:14:00,29.8,19.9,30.16,WSW,237,0.0,0.0,66,0.00,,OVC019,0.00,VWS V14.01,2013-02-11 12:14:00,
2013-02-11 04:19:00,29.8,19.5,30.16,WSW,237,0.0,0.0,65,0.00,,OVC019,0.00,VWS V14.01,2013-02-11 12:19:00,
2013-02-11 04:24:00,29.8,19.5,30.16,WSW,237,0.0,0.0,65,0.00,,OVC019,0.00,VWS V14.01,2013-02-11 12:24:00,
2013-02-11 04:29:00,29.8,19.5,30.16,WSW,237,0.0,0.0,65,0.00,,OVC019,0.00,VWS V14.01,2013-02-11 12:29:00,
2013-02-11 04:34:00,30.0,19.7,30.16,WSW,237,0.0,0.0,65,0.00,,OVC019,0.00,VWS V14.01,2013-02-11 12:34:00,
2013-02-11 04:39:00,30.2,19.5,30.16,WSW,237,0.0,0.0,64,0.00,,OVC019,0.00,VWS V14.01,2013-02-11 12:39:00,
2013-02-11 04:44:00,30.2,19.5,30.16,WSW,237,0.0,0.0,64,0.00,,OVC019,0.00,VWS V14.01,2013-02-11 12:44:00,
2013-02-11 04:49:00,30.2,19.5,30.16,WSW,237,0.0,0.0,64,0.00,,OVC019,0.00,VWS V14.01,2013-02-11 12:49:00,
2013-02-11 04:54:00,30.2,19.5,30.14,WSW,237,0.0,0.0,64,0.00,,OVC019,0.00,VWS V14.01,2013-02-11 12:54:00,
2013-02-11 04:59:00,30.2,19.5,30.14,WSW,237,0.0,0.0,64,0.00,,OVC019,0.00,VWS V14.01,2013-02-11 12:59:00,
2013-02-11 05:04:00,30.2,19.5,30.14,WSW,237,0.0,0.0,64,0.00,,OVC021,0.00,VWS V14.01,2013-02-11 13:04:00,
2013-02-11 05:09:00,30.2,19.5,30.14,WSW,237,0.0,0.0,64,0.00,,OVC021,0.00,VWS V14.01,2013-02-11 13:09:00,
2013-02-11 05:14:00,30.2,19.5,30.14,WSW,237,0.0,0.0,64,0.00,,OVC021,0.00,VWS V14.01,2013-02-11 13:14:00,
2013-02-11 05:19:00,30.2,19.5,30.14,WSW,237,0.0,0.0,64,0.00,,OVC021,0.00,VWS V14.01,2013-02-11 13:19:00,
2013-02-11 05:24:00,30.0,19.3,30.14,WSW,237,0.0,0.0,64,0.00,,OVC021,0.00,VWS V14.01,2013-02-11 13:24:00,
2013-02-11 05:29:00,30.2,19.5,30.14,WSW,237,0.0,0.0,64,0.00,,OVC021,0.00,VWS V14.01,2013-02-11 13:29:00,
2013-02-11 05:34:00,30.2,19.5,30.14,WSW,237,0.0,0.0,64,0.00,,OVC021,0.00,VWS V14.01,2013-02-11 13:34:00,
2013-02-11 05:39:00,30.2,19.5,30.14,WSW,237,0.0,0.0,64,0.00,,OVC021,0.00,VWS V14.01,2013-02-11 13:39:00,
2013-02-11 05:44:00,30.2,19.5,30.14,WSW,237,0.0,0.0,64,0.00,,OVC021,0.00,VWS V14.01,2013-02-11 13:44:00,
2013-02-11 05:49:00,30.2,19.5,30.14,WSW,237,0.0,0.0,64,0.00,,OVC021,0.00,VWS V14.01,2013-02-11 13:49:00,
2013-02-11 05:54:00,30.2,19.5,30.14,WSW,237,0.0,0.0,64,0.00,,OVC021,0.00,VWS V14.01,2013-02-11 13:54:00,
2013-02-11 05:59:00,30.2,19.5,30.14,WSW,237,0.0,0.0,64,0.00,,OVC021,0.00,VWS V14.01,2013-02-11 13:59:00,
2013-02-11 06:04:00,30.2,19.5,30.14,WSW,237,0.0,0.0,64,0.00,,BKN025,0.00,VWS V14.01,2013-02-11 14:04:00,
2013-02-11 06:09:00,30.2,19.5,30.14,WSW,237,0.0,0.0,64,0.00,,BKN025,0.00,VWS V14.01,2013-02-11 14:09:00,
2013-02-11 06:14:00,30.4,19.7,30.14,WSW,237,0.0,0.0,64,0.00,,BKN025,0.00,VWS V14.01,2013-02-11 14:14:00,
2013-02-11 06:19:00,30.4,19.7,30.14,WSW,237,0.0,0.0,64,0.00,,BKN025,0.00,VWS V14.01,2013-02-11 14:19:00,
2013-02-11 06:24:00,30.4,19.7,30.14,WSW,237,0.0,0.0,64,0.00,,BKN025,0.00,VWS V14.01,2013-02-11 14:24:00,
2013-02-11 06:29:00,30.4,19.7,30.14,WSW,237,0.0,0.0,64,0.00,,BKN025,0.00,VWS V14.01,2013-02-11 14:29:00,
2013-02-11 06:34:00,30.4,19.7,30.14,WSW,237,0.0,0.0,64,0.00,,BKN025,0.00,VWS V14.01,2013-02-11 14:34:00,
2013-02-11 06:39:00,30.4,19.7,30.14,WSW,237,0.0,0.0,64,0.00,,BKN025,0.00,VWS V14.01,2013-02-11 14:39:00,
2013-02-11 06:44:00,30.4,19.7,30.14,WSW,237,0.0,0.0,64,0.00,,BKN025,0.00,VWS V14.01,2013-02-11 14:44:00,
2013-02-11 06:49:00,30.6,19.9,30.14,SW,236,0.0,0.0,64,0.00,,BKN025,0.00,VWS V14.01,2013-02-11 14:49:00,
2013-02-11 06:54:00,30.6,19.9,30.14,SW,236,0.0,0.0,64,0.00,,BKN025,0.00,VWS V14.01,2013-02-11 14:54:00,
2013-02-11 06:59:00,30.6,20.2,30.14,SW,233,0.0,0.0,65,0.00,,BKN025,0.00,VWS V14.01,2013-02-11 14:59:00,
2013-02-11 07:04:00,30.6,20.2,30.14,SW,225,0.0,0.0,65,0.00,,BKN200,0.00,VWS V14.01,2013-02-11 15:04:00,
2013-02-11 07:09:00,30.7,20.4,30.14,SSE,166,0.0,0.0,65,0.00,,BKN200,0.00,VWS V14.01,2013-02-11 15:09:00,
2013-02-11 07:14:00,30.7,20.4,30.14,SSE,166,0.0,0.0,65,0.00,,BKN200,0.00,VWS V14.01,2013-02-11 15:14:00,
2013-02-11 07:19:00,30.9,20.5,30.14,SSE,166,0.0,0.0,65,0.00,,BKN200,0.00,VWS V14.01,2013-02-11 15:19:00,
2013-02-11 07:24:00,30.9,20.5,30.14,SSE,166,0.0,0.0,65,0.00,,BKN200,0.00,VWS V14.01,2013-02-11 15:24:00,
2013-02-11 07:29:00,31.1,21.1,30.14,SSE,166,0.0,0.0,66,0.00,,BKN200,0.00,VWS V14.01,2013-02-11 15:29:00,
2013-02-11 07:34:00,31.3,21.3,30.14,South,170,0.0,0.0,66,0.00,,BKN200,0.00,VWS V14.01,2013-02-11 15:34:00,
2013-02-11 07:39:00,31.5,21.4,30.14,SSE,167,0.0,0.0,66,0.00,,BKN200,0.00,VWS V14.01,2013-02-11 15:39:00,
2013-02-11 07:44:00,31.5,21.4,30.14,SSE,167,0.0,0.0,66,0.00,,BKN200,0.00,VWS V14.01,2013-02-11 15:44:00,
2013-02-11 07:49:00,31.6,21.6,30.14,SSE,167,0.0,0.0,66,0.00,,BKN200,0.00,VWS V14.01,2013-02-11 15:49:00,
2013-02-11 07:54:00,31.8,21.8,30.14,SSE,167,0.0,0.0,66,0.00,,BKN200,0.00,VWS V14.01,2013-02-11 15:54:00,
2013-02-11 07:59:00,32.2,22.1,30.14,SSE,167,0.0,0.0,66,0.00,,BKN200,0.00,VWS V14.01,2013-02-11 15:59:00,
2013-02-11 08:04:00,32.2,22.1,30.14,SSE,167,0.0,0.0,66,0.00,,BKN200,0.00,VWS V14.01,2013-02-11 16:04:00,
2013-02-11 08:09:00,32.5,22.5,30.16,SSE,167,0.0,0.0,66,0.00,,BKN021,0.00,VWS V14.01,2013-02-11 16:09:00,
2013-02-11 08:14:00,32.7,22.6,30.16,SSE,167,0.0,0.0,66,0.00,,BKN021,0.00,VWS V14.01,2013-02-11 16:14:00,
2013-02-11 08:19:00,32.9,22.4,30.16,SSE,167,0.0,0.0,65,0.00,,BKN021,0.00,VWS V14.01,2013-02-11 16:19:00,
2013-02-11 08:24:00,33.1,22.6,30.16,SSE,167,0.0,0.0,65,0.00,,BKN021,0.00,VWS V14.01,2013-02-11 16:24:00,
2013-02-11 08:29:00,33.1,22.2,30.16,SSE,167,0.0,0.0,64,0.00,,BKN021,0.00,VWS V14.01,2013-02-11 16:29:00,
2013-02-11 08:34:00,33.3,22.4,30.16,ESE,123,0.0,0.0,64,0.00,,BKN021,0.00,VWS V14.01,2013-02-11 16:34:00,
2013-02-11 08:39:00,33.3,22.0,30.16,ENE,57,0.0,0.0,63,0.00,,BKN021,0.00,VWS V14.01,2013-02-11 16:39:00,
2013-02-11 08:44:00,33.3,21.7,30.16,ENE,69,0.0,0.0,62,0.00,,BKN021,0.00,VWS V14.01,2013-02-11 16:44:00,
2013-02-11 08:49:00,33.4,21.8,30.16,ENE,70,0.0,0.0,62,0.00,,BKN021,0.00,VWS V14.01,2013-02-11 16:49:00,
2013-02-11 08:54:00,33.6,21.6,30.16,ENE,70,0.0,0.0,61,0.00,,BKN021,0.00,VWS V14.01,2013-02-11 16:54:00,
2013-02-11 08:59:00,33.8,21.4,30.16,NE,47,0.0,0.0,60,0.00,,BKN023,0.00,VWS V14.01,2013-02-11 16:59:00,
2013-02-11 09:04:00,34.0,21.2,30.16,ENE,59,0.0,0.0,59,0.00,,BKN023,0.00,VWS V14.01,2013-02-11 17:04:00,
2013-02-11 09:09:00,34.3,21.1,30.16,East,81,0.0,0.0,58,0.00,,BKN023,0.00,VWS V14.01,2013-02-11 17:09:00,
2013-02-11 09:14:00,34.5,20.9,30.16,East,81,0.0,0.0,57,0.00,,BKN023,0.00,VWS V14.01,2013-02-11 17:14:00,
2013-02-11 09:19:00,34.7,20.6,30.16,East,79,0.0,0.0,56,0.00,,BKN023,0.00,VWS V14.01,2013-02-11 17:19:00,
2013-02-11 09:24:00,34.9,20.8,30.16,East,80,0.0,0.0,56,0.00,,BKN023,0.00,VWS V14.01,2013-02-11 17:24:00,
2013-02-11 09:29:00,34.9,20.4,30.16,ENE,72,0.0,0.0,55,0.00,,BKN023,0.00,VWS V14.01,2013-02-11 17:29:00,
2013-02-11 09:34:00,35.1,20.5,30.16,ENE,71,0.0,0.0,55,0.00,,BKN023,0.00,VWS V14.01,2013-02-11 17:34:00,
2013-02-11 09:39:00,35.1,20.1,30.16,ENE,72,0.0,0.0,54,0.00,,BKN023,0.00,VWS V14.01,2013-02-11 17:39:00,
2013-02-11 09:44:00,35.1,20.1,30.16,ENE,75,0.0,2.7,54,0.00,,BKN023,0.00,VWS V14.01,2013-02-11 17:44:00,
2013-02-11 09:49:00,35.4,20.0,30.16,NE,52,2.2,3.1,53,0.00,,BKN023,0.00,VWS V14.01,2013-02-11 17:49:00,
2013-02-11 09:54:00,35.8,19.9,30.16,ENE,61,0.0,0.0,52,0.00,,BKN023,0.00,VWS V14.01,2013-02-11 17:54:00,
2013-02-11 09:59:00,36.0,19.6,30.16,ENE,71,0.0,0.0,51,0.00,,BKN200,0.00,VWS V14.01,2013-02-11 17:59:00,
2013-02-11 10:04:00,36.1,19.3,30.16,ENE,69,0.0,0.0,50,0.00,,BKN200,0.00,VWS V14.01,2013-02-11 18:04:00,
2013-02-11 10:09:00,36.5,19.6,30.16,ENE,57,3.1,3.1,50,0.00,,BKN200,0.00,VWS V14.01,2013-02-11 18:09:00,
2013-02-11 10:14:00,37.0,19.7,30.16,NNE,25,3.1,3.1,49,0.00,,BKN200,0.00,VWS V14.01,2013-02-11 18:14:00,
2013-02-11 10:19:00,37.6,19.2,30.16,ENE,71,3.6,3.6,47,0.00,,BKN200,0.00,VWS V14.01,2013-02-11 18:19:00,
2013-02-11 10:24:00,37.8,18.3,30.16,NE,37,3.1,3.6,45,0.00,,BKN200,0.00,VWS V14.01,2013-02-11 18:24:00,
2013-02-11 10:29:00,37.9,18.0,30.16,ENE,63,0.0,0.0,44,0.00,,BKN200,0.00,VWS V14.01,2013-02-11 18:29:00,
2013-02-11 10:34:00,38.3,18.3,30.16,ENE,65,0.0,0.0,44,0.00,,BKN200,0.00,VWS V14.01,2013-02-11 18:34:00,
2013-02-11 10:39:00,39.0,19.0,30.16,ESE,104,2.2,2.2,44,0.00,,BKN200,0.00,VWS V14.01,2013-02-11 18:39:00,
2013-02-11 10:44:00,39.2,18.6,30.16,ENE,65,0.0,0.0,43,0.00,,BKN200,0.00,VWS V14.01,2013-02-11 18:44:00,
2013-02-11 10:49:00,39.2,18.0,30.16,ENE,68,2.7,2.7,42,0.00,,BKN200,0.00,VWS V14.01,2013-02-11 18:49:00,
2013-02-11 10:54:00,39.2,18.0,30.16,East,84,3.6,3.6,42,0.00,,BKN200,0.00,VWS V14.01,2013-02-11 18:54:00,
2013-02-11 10:59:00,40.1,18.3,30.16,East,84,0.0,0.0,41,0.00,,BKN200,0.00,VWS V14.01,2013-02-11 18:59:00,
2013-02-11 11:04:00,40.6,18.2,30.16,East,79,2.7,3.6,40,0.00,,BKN200,0.00,VWS V14.01,2013-02-11 19:04:00,
2013-02-11 11:09:00,40.8,18.4,30.16,ENE,74,2.2,2.7,40,0.00,,BKN200,0.00,VWS V14.01,2013-02-11 19:09:00,
2013-02-11 11:14:00,41.0,18.5,30.16,South,191,0.0,0.0,40,0.00,,BKN200,0.00,VWS V14.01,2013-02-11 19:14:00,
2013-02-11 11:19:00,41.5,19.0,30.16,West,275,5.4,6.7,40,0.00,,BKN200,0.00,VWS V14.01,2013-02-11 19:19:00,
2013-02-11 11:24:00,41.5,18.4,30.16,West,261,0.0,0.0,39,0.00,,BKN200,0.00,VWS V14.01,2013-02-11 19:24:00,
2013-02-11 11:29:00,41.5,18.4,30.16,SW,235,6.3,6.3,39,0.00,,BKN200,0.00,VWS V14.01,2013-02-11 19:29:00,
2013-02-11 11:34:00,41.7,18.6,30.16,SW,234,0.0,2.7,39,0.00,,BKN200,0.00,VWS V14.01,2013-02-11 19:34:00,
2013-02-11 11:39:00,41.2,18.1,30.14,SW,234,0.0,2.2,39,0.00,,BKN200,0.00,VWS V14.01,2013-02-11 19:39:00,
2013-02-11 11:44:00,40.8,17.8,30.14,SSW,212,0.0,0.0,39,0.00,,BKN200,0.00,VWS V14.01,2013-02-11 19:44:00,
2013-02-11 11:49:00,41.0,18.0,30.14,SW,226,2.7,4.0,39,0.00,,BKN200,0.00,VWS V14.01,2013-02-11 19:49:00,
2013-02-11 11:54:00,42.4,19.2,30.14,South,191,0.0,3.1,39,0.00,,BKN200,0.00,VWS V14.01,2013-02-11 19:54:00,
2013-02-11 11:59:00,43.7,19.8,30.14,SW,215,7.2,7.2,38,0.00,,BKN200,0.00,VWS V14.01,2013-02-11 19:59:00,
2013-02-11 12:04:00,44.1,18.8,30.14,WSW,258,8.1,8.1,36,0.00,,SCT200,0.00,VWS V14.01,2013-02-11 20:04:00,
2013-02-11 12:09:00,44.1,18.2,30.14,WSW,249,8.1,8.1,35,0.00,,SCT200,0.00,VWS V14.01,2013-02-11 20:09:00,
2013-02-11 12:14:00,43.9,18.7,30.14,West,263,5.4,8.1,36,0.00,,SCT200,0.00,VWS V14.01,2013-02-11 20:14:00,
2013-02-11 12:19:00,43.5,18.4,30.14,WSW,240,6.3,7.6,36,0.00,,SCT200,0.00,VWS V14.01,2013-02-11 20:19:00,
2013-02-11 12:24:00,43.5,18.4,30.14,West,268,7.6,7.6,36,0.00,,SCT200,0.00,VWS V14.01,2013-02-11 20:24:00,
2013-02-11 12:29:00,43.7,19.1,30.14,WSW,256,7.2,7.2,37,0.00,,SCT200,0.00,VWS V14.01,2013-02-11 20:29:00,
2013-02-11 12:34:00,43.7,17.9,30.14,West,281,7.6,8.7,35,0.00,,SCT200,0.00,VWS V14.01,2013-02-11 20:34:00,
2013-02-11 12:39:00,43.3,17.5,30.14,WSW,256,8.1,8.7,35,0.00,,SCT200,0.00,VWS V14.01,2013-02-11 20:39:00,
2013-02-11 12:44:00,43.2,18.0,30.14,WSW,252,5.8,7.6,36,0.00,,SCT200,0.00,VWS V14.01,2013-02-11 20:44:00,
2013-02-11 12:49:00,43.0,17.9,30.14,West,267,8.7,8.7,36,0.00,,SCT200,0.00,VWS V14.01,2013-02-11 20:49:00,
2013-02-11 12:54:00,42.6,18.2,30.14,SSW,194,6.3,8.3,37,0.00,,BKN200,0.00,VWS V14.01,2013-02-11 20:54:00,
2013-02-11 12:59:00,42.8,19.0,30.14,SW,214,5.4,5.8,38,0.00,,BKN200,0.00,VWS V14.01,2013-02-11 20:59:00,
2013-02-11 13:04:00,43.7,19.8,30.14,SW,226,8.7,8.7,38,0.00,,OVC024,0.00,VWS V14.01,2013-02-11 21:04:00,
2013-02-11 13:09:00,44.8,19.5,30.14,WSW,237,8.7,8.7,36,0.00,,OVC024,0.00,VWS V14.01,2013-02-11 21:09:00,
2013-02-11 13:14:00,44.8,18.8,30.14,SW,224,8.3,8.3,35,0.00,,OVC024,0.00,VWS V14.01,2013-02-11 21:14:00,
2013-02-11 13:19:00,45.0,19.0,30.14,WSW,244,8.7,8.7,35,0.00,,OVC024,0.00,VWS V14.01,2013-02-11 21:19:00,
2013-02-11 13:24:00,45.3,19.3,30.11,SW,229,7.6,10.1,35,0.00,,OVC024,0.00,VWS V14.01,2013-02-11 21:24:00,
2013-02-11 13:29:00,45.0,18.3,30.11,WSW,249,8.3,8.7,34,0.00,,OVC024,0.00,VWS V14.01,2013-02-11 21:29:00,
2013-02-11 13:34:00,44.2,17.7,30.11,WSW,251,6.3,6.7,34,0.00,,OVC024,0.00,VWS V14.01,2013-02-11 21:34:00,
2013-02-11 13:39:00,43.5,17.7,30.14,SW,231,5.4,5.4,35,0.00,,OVC024,0.00,VWS V14.01,2013-02-11 21:39:00,
2013-02-11 13:44:00,43.0,17.9,30.14,WSW,249,6.7,7.6,36,0.00,,OVC024,0.00,VWS V14.01,2013-02-11 21:44:00,
2013-02-11 13:49:00,42.8,17.7,30.14,West,274,3.1,4.0,36,0.00,,OVC024,0.00,VWS V14.01,2013-02-11 21:49:00,
2013-02-11 13:54:00,42.4,18.0,30.14,West,267,2.7,2.7,37,0.00,,OVC024,0.00,VWS V14.01,2013-02-11 21:54:00,
2013-02-11 13:59:00,41.7,18.0,30.14,West,267,4.0,4.0,38,0.00,,OVC024,0.00,VWS V14.01,2013-02-11 21:59:00,
2013-02-11 14:04:00,41.5,17.8,30.14,WSW,242,6.3,6.3,38,0.00,,OVC024,0.00,VWS V14.01,2013-02-11 22:04:00,
2013-02-11 14:09:00,41.2,17.5,30.11,West,262,5.8,6.3,38,0.00,,OVC024,0.00,VWS V14.01,2013-02-11 22:09:00,
2013-02-11 14:14:00,41.0,17.4,30.11,SW,232,4.9,5.4,38,0.00,,OVC024,0.00,VWS V14.01,2013-02-11 22:14:00,
2013-02-11 14:19:00,40.8,17.8,30.11,SW,215,5.4,5.8,39,0.00,,OVC024,0.00,VWS V14.01,2013-02-11 22:19:00,
2013-02-11 14:24:00,40.6,17.6,30.14,WSW,239,4.0,6.7,39,0.00,,OVC024,0.00,VWS V14.01,2013-02-11 22:24:00,
2013-02-11 14:29:00,40.5,17.5,30.14,WSW,238,5.4,5.4,39,0.00,,OVC024,0.00,VWS V14.01,2013-02-11 22:29:00,
2013-02-11 14:34:00,40.5,17.5,30.14,SW,234,8.3,8.3,39,0.00,,OVC024,0.00,VWS V14.01,2013-02-11 22:34:00,
2013-02-11 14:39:00,40.3,17.3,30.14,SW,219,5.4,5.4,39,0.00,,OVC024,0.00,VWS V14.01,2013-02-11 22:39:00,
2013-02-11 14:44:00,40.1,17.1,30.14,West,266,5.8,5.8,39,0.00,,OVC024,0.00,VWS V14.01,2013-02-11 22:44:00,
2013-02-11 14:49:00,40.3,17.3,30.14,SW,228,5.8,6.3,39,0.00,,OVC024,0.00,VWS V14.01,2013-02-11 22:49:00,
2013-02-11 14:54:00,40.3,17.9,30.14,SW,229,5.8,8.1,40,0.00,,OVC024,0.00,VWS V14.01,2013-02-11 22:54:00,
2013-02-11 14:59:00,39.9,17.6,30.14,WSW,249,8.1,10.1,40,0.00,,OVC024,0.00,VWS V14.01,2013-02-11 22:59:00,
2013-02-11 15:04:00,39.9,17.6,30.14,WSW,247,7.6,7.6,40,0.00,,OVC024,0.00,VWS V14.01,2013-02-11 23:04:00,
2013-02-11 15:09:00,39.9,17.6,30.14,SW,228,5.8,6.7,40,0.00,,OVC024,0.00,VWS V14.01,2013-02-11 23:09:00,
2013-02-11 15:14:00,39.7,17.4,30.14,SW,235,7.6,7.6,40,0.00,,OVC024,0.00,VWS V14.01,2013-02-11 23:14:00,
2013-02-11 15:19:00,39.9,17.6,30.14,WSW,244,5.8,7.6,40,0.00,,OVC024,0.00,VWS V14.01,2013-02-11 23:19:00,
2013-02-11 15:24:00,40.1,17.7,30.14,West,259,4.0,5.4,40,0.00,,OVC024,0.00,VWS V14.01,2013-02-11 23:24:00,
2013-02-11 15:29:00,40.1,17.7,30.14,WSW,241,4.9,4.9,40,0.00,,OVC024,0.00,VWS V14.01,2013-02-11 23:29:00,
2013-02-11 15:34:00,40.1,17.7,30.14,WSW,246,4.9,5.4,40,0.00,,OVC024,0.00,VWS V14.01,2013-02-11 23:34:00,
2013-02-11 15:39:00,40.1,17.1,30.14,WSW,258,4.9,5.4,39,0.00,,OVC024,0.00,VWS V14.01,2013-02-11 23:39:00,
2013-02-11 15:44:00,40.1,17.7,30.14,WSW,237,3.6,3.6,40,0.00,,OVC024,0.00,VWS V14.01,2013-02-11 23:44:00,
2013-02-11 15:49:00,39.9,17.6,30.14,WSW,249,3.1,3.1,40,0.00,,OVC024,0.00,VWS V14.01,2013-02-11 23:49:00,
2013-02-11 15:54:00,39.9,17.6,30.14,WSW,239,5.4,6.3,40,0.00,,OVC024,0.00,VWS V14.01,2013-02-11 23:54:00,
2013-02-11 15:59:00,39.7,17.4,30.14,WSW,237,3.6,4.9,40,0.00,,OVC024,0.00,VWS V14.01,2013-02-11 23:59:00,
2013-02-11 16:04:00,39.6,17.2,30.14,West,268,4.9,4.9,40,0.00,,OVC023,0.00,VWS V14.01,2013-02-12 00:04:00,
2013-02-11 16:09:00,39.6,17.2,30.14,WSW,258,4.0,4.0,40,0.00,,OVC023,0.00,VWS V14.01,2013-02-12 00:09:00,
2013-02-11 16:14:00,39.4,17.1,30.14,WSW,257,4.0,4.0,40,0.00,,OVC023,0.00,VWS V14.01,2013-02-12 00:14:00,
2013-02-11 16:19:00,39.2,16.9,30.14,WSW,247,3.6,3.6,40,0.00,,OVC023,0.00,VWS V14.01,2013-02-12 00:19:00,
2013-02-11 16:24:00,39.2,16.9,30.14,WSW,249,3.6,3.6,40,0.00,,OVC023,0.00,VWS V14.01,2013-02-12 00:24:00,
2013-02-11 16:29:00,39.2,16.9,30.14,WSW,252,4.0,5.4,40,0.00,,OVC023,0.00,VWS V14.01,2013-02-12 00:29:00,
2013-02-11 16:34:00,39.0,17.3,30.14,SW,224,4.0,4.0,41,0.00,,OVC023,0.00,VWS V14.01,2013-02-12 00:34:00,
2013-02-11 16:39:00,38.8,17.2,30.14,SW,229,4.9,4.9,41,0.00,,OVC023,0.00,VWS V14.01,2013-02-12 00:39:00,
2013-02-11 16:44:00,38.7,17.0,30.14,SSW,206,3.1,3.1,41,0.00,,OVC023,0.00,VWS V14.01,2013-02-12 00:44:00,
2013-02-11 16:49:00,38.7,17.6,30.14,SW,215,3.1,3.1,42,0.00,,OVC023,0.00,VWS V14.01,2013-02-12 00:49:00,
2013-02-11 16:54:00,38.5,17.4,30.14,SW,218,3.6,3.6,42,0.00,,OVC023,0.00,VWS V14.01,2013-02-12 00:54:00,
2013-02-11 16:59:00,38.5,17.4,30.14,SW,218,3.6,3.6,42,0.00,,OVC023,0.00,VWS V14.01,2013-02-12 00:59:00,
2013-02-11 17:04:00,38.1,17.1,30.14,SW,218,0.0,0.0,42,0.00,,OVC023,0.00,VWS V14.01,2013-02-12 01:04:00,
2013-02-11 17:09:00,38.1,17.6,30.14,SW,235,2.7,2.7,43,0.00,,OVC023,0.00,VWS V14.01,2013-02-12 01:09:00,
2013-02-11 17:14:00,38.1,17.6,30.14,SW,230,2.2,2.7,43,0.00,,OVC023,0.00,VWS V14.01,2013-02-12 01:14:00,
2013-02-11 17:19:00,37.9,17.5,30.14,SW,230,2.7,2.7,43,0.00,,OVC023,0.00,VWS V14.01,2013-02-12 01:19:00,
2013-02-11 17:24:00,37.9,17.5,30.14,SW,230,3.1,3.1,43,0.00,,OVC023,0.00,VWS V14.01,2013-02-12 01:24:00,
2013-02-11 17:29:00,37.8,17.8,30.14,WSW,237,3.6,5.4,44,0.00,,OVC023,0.00,VWS V14.01,2013-02-12 01:29:00,
2013-02-11 17:34:00,37.8,17.8,30.14,SW,231,0.0,2.7,44,0.00,,OVC023,0.00,VWS V14.01,2013-02-12 01:34:00,
2013-02-11 17:39:00,37.8,17.8,30.14,SW,231,2.7,3.1,44,0.00,,OVC023,0.00,VWS V14.01,2013-02-12 01:39:00,
2013-02-11 17:44:00,37.8,17.8,30.14,SW,230,0.0,2.2,44,0.00,,OVC023,0.00,VWS V14.01,2013-02-12 01:44:00,
2013-02-11 17:49:00,37.6,17.7,30.14,SW,230,0.0,0.0,44,0.00,,OVC023,0.00,VWS V14.01,2013-02-12 01:49:00,
2013-02-11 17:54:00,37.6,18.2,30.14,SW,230,0.0,0.0,45,0.00,,OVC023,0.00,VWS V14.01,2013-02-12 01:54:00,
2013-02-11 17:59:00,37.6,18.2,30.14,WSW,249,2.2,2.2,45,0.00,,OVC025,0.00,VWS V14.01,2013-02-12 01:59:00,
2013-02-11 18:04:00,37.6,18.2,30.14,WSW,249,2.2,2.2,45,0.00,,OVC025,0.00,VWS V14.01,2013-02-12 02:04:00,
2013-02-11 18:09:00,37.6,18.2,30.14,WSW,249,2.2,2.2,45,0.00,,OVC025,0.00,VWS V14.01,2013-02-12 02:09:00,
2013-02-11 18:14:00,37.6,18.2,30.14,WSW,250,2.2,3.1,45,0.00,,OVC025,0.00,VWS V14.01,2013-02-12 02:14:00,
2013-02-11 18:19:00,37.6,18.2,30.14,WSW,250,2.2,2.7,45,0.00,,OVC025,0.00,VWS V14.01,2013-02-12 02:19:00,
2013-02-11 18:24:00,37.4,18.0,30.14,WSW,250,0.0,2.2,45,0.00,,OVC025,0.00,VWS V14.01,2013-02-12 02:24:00,
2013-02-11 18:29:00,37.4,18.0,30.14,WSW,250,0.0,0.0,45,0.00,,OVC025,0.00,VWS V14.01,2013-02-12 02:29:00,
2013-02-11 18:34:00,37.2,18.4,30.14,WSW,250,0.0,0.0,46,0.00,,OVC025,0.00,VWS V14.01,2013-02-12 02:34:00,
2013-02-11 18:39:00,37.2,18.4,30.14,WSW,250,0.0,0.0,46,0.00,,OVC025,0.00,VWS V14.01,2013-02-12 02:39:00,
2013-02-11 18:44:00,37.0,18.2,30.14,WSW,250,0.0,0.0,46,0.00,,OVC025,0.00,VWS V14.01,2013-02-12 02:44:00,
2013-02-11 18:49:00,37.0,18.7,30.14,WSW,251,0.0,0.0,47,0.00,,OVC025,0.00,VWS V14.01,2013-02-12 02:49:00,
2013-02-11 18:54:00,37.0,18.7,30.14,WSW,251,0.0,0.0,47,0.00,,OVC025,0.00,VWS V14.01,2013-02-12 02:54:00,
2013-02-11 18:59:00,37.0,18.2,30.14,WSW,251,2.2,2.7,46,0.00,,OVC019,0.00,VWS V14.01,2013-02-12 02:59:00,
2013-02-11 19:04:00,37.0,18.2,30.14,WSW,251,0.0,2.2,46,0.00,,OVC019,0.00,VWS V14.01,2013-02-12 03:04:00,
2013-02-11 19:09:00,36.9,18.0,30.14,WSW,251,2.7,2.7,46,0.00,,OVC019,0.00,VWS V14.01,2013-02-12 03:09:00,
2013-02-11 19:14:00,36.9,18.0,30.14,WSW,248,2.7,2.7,46,0.00,,OVC019,0.00,VWS V14.01,2013-02-12 03:14:00,
2013-02-11 19:19:00,36.9,18.0,30.14,WSW,248,0.0,0.0,46,0.00,,OVC019,0.00,VWS V14.01,2013-02-12 03:19:00,
2013-02-11 19:24:00,36.7,17.9,30.14,WSW,248,0.0,0.0,46,0.00,,OVC019,0.00,VWS V14.01,2013-02-12 03:24:00,
2013-02-11 19:29:00,36.7,18.4,30.14,WSW,248,0.0,0.0,47,0.00,,OVC019,0.00,VWS V14.01,2013-02-12 03:29:00,
2013-02-11 19:34:00,36.5,18.2,30.14,WSW,248,0.0,0.0,47,0.00,,OVC019,0.00,VWS V14.01,2013-02-12 03:34:00,
2013-02-11 19:39:00,36.3,18.0,30.14,WSW,248,0.0,0.0,47,0.00,,OVC019,0.00,VWS V14.01,2013-02-12 03:39:00,
2013-02-11 19:44:00,36.3,18.5,30.14,WSW,248,0.0,0.0,48,0.00,,OVC019,0.00,VWS V14.01,2013-02-12 03:44:00,
2013-02-11 19:49:00,36.1,18.4,30.14,WSW,248,0.0,0.0,48,0.00,,OVC019,0.00,VWS V14.01,2013-02-12 03:49:00,
2013-02-11 19:54:00,36.1,18.8,30.14,WSW,248,0.0,0.0,49,0.00,,OVC019,0.00,VWS V14.01,2013-02-12 03:54:00,
2013-02-11 19:59:00,36.0,19.1,30.14,WSW,248,0.0,0.0,50,0.00,,OVC019,0.00,VWS V14.01,2013-02-12 03:59:00,
2013-02-11 20:04:00,36.1,19.3,30.14,WSW,248,0.0,0.0,50,0.00,,OVC018,0.00,VWS V14.01,2013-02-12 04:04:00,
2013-02-11 20:09:00,36.0,19.1,30.14,WSW,248,0.0,0.0,50,0.00,,OVC018,0.00,VWS V14.01,2013-02-12 04:09:00,
2013-02-11 20:14:00,35.8,19.0,30.14,WSW,248,0.0,0.0,50,0.00,,OVC018,0.00,VWS V14.01,2013-02-12 04:14:00,
2013-02-11 20:19:00,35.8,19.0,30.14,WSW,248,0.0,0.0,50,0.00,,OVC018,0.00,VWS V14.01,2013-02-12 04:19:00,
2013-02-11 20:24:00,36.0,19.6,30.14,WSW,248,0.0,0.0,51,0.00,,OVC018,0.00,VWS V14.01,2013-02-12 04:24:00,
2013-02-11 20:29:00,36.1,19.8,30.14,WSW,248,0.0,0.0,51,0.00,,OVC018,0.00,VWS V14.01,2013-02-12 04:29:00,
2013-02-11 20:34:00,36.1,19.8,30.14,WSW,248,0.0,0.0,51,0.00,,OVC018,0.00,VWS V14.01,2013-02-12 04:34:00,
2013-02-11 20:39:00,36.1,19.8,30.14,WSW,248,0.0,0.0,51,0.00,,OVC018,0.00,VWS V14.01,2013-02-12 04:39:00,
2013-02-11 20:44:00,36.0,19.6,30.14,WSW,248,0.0,0.0,51,0.00,,OVC018,0.00,VWS V14.01,2013-02-12 04:44:00,
2013-02-11 20:49:00,36.0,19.6,30.14,WSW,248,0.0,0.0,51,0.00,,OVC018,0.00,VWS V14.01,2013-02-12 04:49:00,
2013-02-11 20:54:00,36.1,19.8,30.16,WSW,248,0.0,0.0,51,0.00,,OVC018,0.00,VWS V14.01,2013-02-12 04:54:00,
2013-02-11 20:59:00,36.3,19.5,30.16,WSW,248,0.0,0.0,50,0.00,,OVC017,0.00,VWS V14.01,2013-02-12 04:59:00,
2013-02-11 21:00:00,36.3,19.5,30.16,WSW,248,0.0,0.0,50,0.00,,OVC017,0.00,VWS V14.01,2013-02-12 05:00:00,
2013-02-11 21:05:00,36.7,19.8,30.16,WSW,248,0.0,0.0,50,0.00,,OVC017,0.00,VWS V14.01,2013-02-12 05:05:00,
2013-02-11 21:10:00,36.7,19.3,30.16,WSW,248,0.0,0.0,49,0.00,,OVC017,0.00,VWS V14.01,2013-02-12 05:10:00,
2013-02-11 21:15:00,36.9,19.0,30.16,WSW,248,0.0,0.0,48,0.00,,OVC017,0.00,VWS V14.01,2013-02-12 05:15:00,
2013-02-11 21:20:00,36.9,19.5,30.16,WSW,248,0.0,0.0,49,0.00,,OVC017,0.00,VWS V14.01,2013-02-12 05:20:00,
2013-02-11 21:25:00,36.7,19.3,30.16,WSW,248,0.0,0.0,49,0.00,,OVC017,0.00,VWS V14.01,2013-02-12 05:25:00,
2013-02-11 21:30:00,36.5,19.2,30.16,WSW,248,0.0,0.0,49,0.00,,OVC017,0.00,VWS V14.01,2013-02-12 05:30:00,
2013-02-11 21:35:00,36.3,19.5,30.16,WSW,248,0.0,0.0,50,0.00,,OVC017,0.00,VWS V14.01,2013-02-12 05:35:00,
2013-02-11 21:40:00,36.1,19.3,30.14,WSW,248,0.0,0.0,50,0.00,,OVC017,0.00,VWS V14.01,2013-02-12 05:40:00,
2013-02-11 21:45:00,36.0,19.6,30.14,WSW,248,0.0,0.0,51,0.00,,OVC017,0.00,VWS V14.01,2013-02-12 05:45:00,
2013-02-11 21:50:00,35.8,19.4,30.14,WSW,248,0.0,0.0,51,0.00,,OVC017,0.00,VWS V14.01,2013-02-12 05:50:00,
2013-02-11 21:55:00,35.8,19.4,30.16,WSW,248,0.0,0.0,51,0.00,,OVC017,0.00,VWS V14.01,2013-02-12 05:55:00,
2013-02-11 22:00:00,35.8,19.9,30.16,WSW,248,0.0,0.0,52,0.00,,OVC017,0.00,VWS V14.01,2013-02-12 06:00:00,
2013-02-11 22:05:00,35.8,19.9,30.16,WSW,248,0.0,0.0,52,0.00,,OVC018,0.00,VWS V14.01,2013-02-12 06:05:00,
2013-02-11 22:10:00,35.6,19.3,30.14,WSW,248,0.0,0.0,51,0.00,,OVC018,0.00,VWS V14.01,2013-02-12 06:10:00,
2013-02-11 22:15:00,35.4,19.6,30.14,WSW,248,0.0,0.0,52,0.00,,OVC018,0.00,VWS V14.01,2013-02-12 06:15:00,
2013-02-11 22:20:00,35.4,20.0,30.14,WSW,248,0.0,0.0,53,0.00,,OVC018,0.00,VWS V14.01,2013-02-12 06:20:00,
2013-02-11 22:25:00,35.4,20.0,30.16,WSW,248,0.0,0.0,53,0.00,,OVC018,0.00,VWS V14.01,2013-02-12 06:25:00,
2013-02-11 22:30:00,35.4,20.0,30.16,WSW,248,0.0,0.0,53,0.00,,OVC018,0.00,VWS V14.01,2013-02-12 06:30:00,
2013-02-11 22:35:00,35.4,20.0,30.16,WSW,248,0.0,2.7,53,0.00,,OVC018,0.00,VWS V14.01,2013-02-12 06:35:00,
2013-02-11 22:40:00,35.4,20.0,30.16,WSW,248,0.0,2.7,53,0.00,,OVC018,0.00,VWS V14.01,2013-02-12 06:40:00,
2013-02-11 22:45:00,35.2,20.3,30.16,WSW,248,0.0,0.0,54,0.00,,OVC018,0.00,VWS V14.01,2013-02-12 06:45:00,
2013-02-11 22:50:00,35.4,20.4,30.16,WSW,248,0.0,0.0,54,0.00,,OVC018,0.00,VWS V14.01,2013-02-12 06:50:00,
2013-02-11 22:55:00,35.4,20.4,30.16,WSW,248,0.0,0.0,54,0.00,,OVC018,0.00,VWS V14.01,2013-02-12 06:55:00,
2013-02-11 23:00:00,35.4,20.4,30.16,WSW,248,0.0,0.0,54,0.00,,OVC019,0.00,VWS V14.01,2013-02-12 07:00:00,
2013-02-11 23:05:00,35.4,20.4,30.16,WSW,248,0.0,0.0,54,0.00,,OVC019,0.00,VWS V14.01,2013-02-12 07:05:00,
2013-02-11 23:10:00,35.4,20.4,30.16,WSW,248,0.0,0.0,54,0.00,,OVC019,0.00,VWS V14.01,2013-02-12 07:10:00,
2013-02-11 23:15:00,35.4,20.4,30.16,WSW,248,0.0,0.0,54,0.00,,OVC019,0.00,VWS V14.01,2013-02-12 07:15:00,
2013-02-11 23:20:00,35.4,20.4,30.16,WSW,248,0.0,0.0,54,0.00,,OVC019,0.00,VWS V14.01,2013-02-12 07:20:00,
2013-02-11 23:25:00,35.2,20.3,30.16,WSW,248,0.0,0.0,54,0.00,,OVC019,0.00,VWS V14.01,2013-02-12 07:25:00,
2013-02-11 23:30:00,35.2,20.3,30.16,WSW,248,2.7,2.7,54,0.00,,OVC019,0.00,VWS V14.01,2013-02-12 07:30:00,
2013-02-11 23:35:00,35.4,20.9,30.16,WSW,254,3.1,3.6,55,0.00,,OVC019,0.00,VWS V14.01,2013-02-12 07:35:00,
2013-02-11 23:40:00,35.4,20.9,30.16,WSW,253,3.1,3.1,55,0.00,,OVC019,0.00,VWS V14.01,2013-02-12 07:40:00,
2013-02-11 23:45:00,35.6,20.6,30.16,WSW,245,2.2,3.6,54,0.00,,OVC019,0.00,VWS V14.01,2013-02-12 07:45:00,
2013-02-11 23:50:00,35.4,20.9,30.16,WSW,245,2.7,2.7,55,0.00,,OVC019,0.00,VWS V14.01,2013-02-12 07:50:00,
2013-02-11 23:55:00,35.4,20.9,30.16,WSW,246,2.7,3.6,55,0.00,,OVC019,0.00,VWS V14.01,2013-02-12 07:55:00,